sensor_id;sensor_type;location;lat;lon;timestamp;P1;durP1;ratioP1;P2;durP2;ratioP2
18142;SDS011;9197;50.930;3.140;2022-10-31T00:01:59;9.73;;;6.63;;
18142;SDS011;9197;50.930;3.140;2022-10-31T00:04:26;8.77;;;7.50;;
18142;SDS011;9197;50.930;3.140;2022-10-31T00:06:55;10.10;;;7.63;;
18142;SDS011;9197;50.930;3.140;2022-10-31T00:09:22;9.80;;;7.10;;
18142;SDS011;9197;50.930;3.140;2022-10-31T00:11:49;9.27;;;7.07;;
18142;SDS011;9197;50.930;3.140;2022-10-31T00:14:16;10.53;;;7.40;;
18142;SDS011;9197;50.930;3.140;2022-10-31T00:16:43;8.77;;;6.70;;
18142;SDS011;9197;50.930;3.140;2022-10-31T00:19:11;8.77;;;6.67;;
18142;SDS011;9197;50.930;3.140;2022-10-31T00:21:38;8.10;;;6.90;;
18142;SDS011;9197;50.930;3.140;2022-10-31T00:24:06;7.87;;;7.00;;
18142;SDS011;9197;50.930;3.140;2022-10-31T00:26:34;7.60;;;6.73;;
18142;SDS011;9197;50.930;3.140;2022-10-31T00:29:01;10.37;;;7.77;;
18142;SDS011;9197;50.930;3.140;2022-10-31T00:31:28;10.20;;;7.43;;
18142;SDS011;9197;50.930;3.140;2022-10-31T00:33:56;9.23;;;7.47;;
18142;SDS011;9197;50.930;3.140;2022-10-31T00:36:24;7.83;;;6.93;;
18142;SDS011;9197;50.930;3.140;2022-10-31T00:38:51;15.37;;;7.93;;
18142;SDS011;9197;50.930;3.140;2022-10-31T00:41:19;7.63;;;6.90;;
18142;SDS011;9197;50.930;3.140;2022-10-31T00:43:46;11.83;;;7.63;;
18142;SDS011;9197;50.930;3.140;2022-10-31T00:46:14;9.20;;;7.50;;
18142;SDS011;9197;50.930;3.140;2022-10-31T00:48:41;7.97;;;7.17;;
18142;SDS011;9197;50.930;3.140;2022-10-31T00:51:08;8.63;;;7.43;;
18142;SDS011;9197;50.930;3.140;2022-10-31T00:53:35;9.90;;;7.90;;
18142;SDS011;9197;50.930;3.140;2022-10-31T00:56:03;10.60;;;8.10;;
18142;SDS011;9197;50.930;3.140;2022-10-31T00:58:31;12.23;;;8.43;;
18142;SDS011;9197;50.930;3.140;2022-10-31T01:00:59;12.73;;;7.70;;
18142;SDS011;9197;50.930;3.140;2022-10-31T01:03:27;8.87;;;7.97;;
18142;SDS011;9197;50.930;3.140;2022-10-31T01:05:55;9.50;;;7.77;;
18142;SDS011;9197;50.930;3.140;2022-10-31T01:08:22;10.40;;;7.67;;
18142;SDS011;9197;50.930;3.140;2022-10-31T01:10:57;8.93;;;7.97;;
18142;SDS011;9197;50.930;3.140;2022-10-31T01:13:24;12.20;;;8.27;;
18142;SDS011;9197;50.930;3.140;2022-10-31T01:15:54;9.23;;;7.80;;
18142;SDS011;9197;50.930;3.140;2022-10-31T01:18:22;10.27;;;8.13;;
18142;SDS011;9197;50.930;3.140;2022-10-31T01:20:56;10.13;;;7.67;;
18142;SDS011;9197;50.930;3.140;2022-10-31T01:23:24;10.47;;;9.33;;
18142;SDS011;9197;50.930;3.140;2022-10-31T01:25:58;10.00;;;8.27;;
18142;SDS011;9197;50.930;3.140;2022-10-31T01:28:25;12.00;;;8.60;;
18142;SDS011;9197;50.930;3.140;2022-10-31T01:30:52;10.57;;;8.57;;
18142;SDS011;9197;50.930;3.140;2022-10-31T01:33:21;11.73;;;8.73;;
18142;SDS011;9197;50.930;3.140;2022-10-31T01:35:48;12.17;;;9.03;;
18142;SDS011;9197;50.930;3.140;2022-10-31T01:38:15;13.57;;;9.73;;
18142;SDS011;9197;50.930;3.140;2022-10-31T01:40:42;10.33;;;8.70;;
18142;SDS011;9197;50.930;3.140;2022-10-31T01:43:11;10.80;;;9.17;;
18142;SDS011;9197;50.930;3.140;2022-10-31T01:45:39;11.87;;;8.73;;
18142;SDS011;9197;50.930;3.140;2022-10-31T01:48:09;13.70;;;9.80;;
18142;SDS011;9197;50.930;3.140;2022-10-31T01:50:38;12.53;;;9.17;;
18142;SDS011;9197;50.930;3.140;2022-10-31T01:53:06;12.13;;;9.40;;
18142;SDS011;9197;50.930;3.140;2022-10-31T01:55:34;13.13;;;9.17;;
18142;SDS011;9197;50.930;3.140;2022-10-31T01:58:04;12.07;;;8.40;;
18142;SDS011;9197;50.930;3.140;2022-10-31T02:00:33;10.97;;;8.77;;
18142;SDS011;9197;50.930;3.140;2022-10-31T02:03:00;11.13;;;9.20;;
18142;SDS011;9197;50.930;3.140;2022-10-31T02:05:28;10.60;;;8.93;;
18142;SDS011;9197;50.930;3.140;2022-10-31T02:07:58;10.17;;;9.17;;
18142;SDS011;9197;50.930;3.140;2022-10-31T02:10:26;10.27;;;9.13;;
18142;SDS011;9197;50.930;3.140;2022-10-31T02:12:55;10.40;;;8.60;;
18142;SDS011;9197;50.930;3.140;2022-10-31T02:15:23;10.10;;;9.00;;
18142;SDS011;9197;50.930;3.140;2022-10-31T02:17:50;13.27;;;9.50;;
18142;SDS011;9197;50.930;3.140;2022-10-31T02:20:18;10.97;;;9.27;;
18142;SDS011;9197;50.930;3.140;2022-10-31T02:22:53;13.57;;;9.17;;
18142;SDS011;9197;50.930;3.140;2022-10-31T02:25:27;10.63;;;8.80;;
18142;SDS011;9197;50.930;3.140;2022-10-31T02:28:17;9.27;;;8.37;;
18142;SDS011;9197;50.930;3.140;2022-10-31T02:30:54;11.47;;;8.50;;
18142;SDS011;9197;50.930;3.140;2022-10-31T02:33:23;9.33;;;7.50;;
18142;SDS011;9197;50.930;3.140;2022-10-31T02:35:55;8.50;;;7.70;;
18142;SDS011;9197;50.930;3.140;2022-10-31T02:38:26;11.00;;;8.67;;
18142;SDS011;9197;50.930;3.140;2022-10-31T02:40:59;12.60;;;8.37;;
18142;SDS011;9197;50.930;3.140;2022-10-31T02:43:30;13.97;;;8.97;;
18142;SDS011;9197;50.930;3.140;2022-10-31T02:46:01;13.50;;;10.07;;
18142;SDS011;9197;50.930;3.140;2022-10-31T02:48:31;15.03;;;10.27;;
18142;SDS011;9197;50.930;3.140;2022-10-31T02:51:01;10.97;;;9.33;;
18142;SDS011;9197;50.930;3.140;2022-10-31T02:53:31;13.17;;;10.70;;
18142;SDS011;9197;50.930;3.140;2022-10-31T02:55:59;12.63;;;10.60;;
18142;SDS011;9197;50.930;3.140;2022-10-31T02:58:28;15.33;;;11.40;;
18142;SDS011;9197;50.930;3.140;2022-10-31T03:01:12;13.23;;;10.93;;
18142;SDS011;9197;50.930;3.140;2022-10-31T03:03:46;17.83;;;12.70;;
18142;SDS011;9197;50.930;3.140;2022-10-31T03:06:19;13.80;;;10.63;;
18142;SDS011;9197;50.930;3.140;2022-10-31T03:08:49;14.53;;;10.33;;
18142;SDS011;9197;50.930;3.140;2022-10-31T03:11:17;12.60;;;10.50;;
18142;SDS011;9197;50.930;3.140;2022-10-31T03:13:48;12.27;;;10.90;;
18142;SDS011;9197;50.930;3.140;2022-10-31T03:16:19;12.07;;;10.33;;
18142;SDS011;9197;50.930;3.140;2022-10-31T03:18:52;15.83;;;11.73;;
18142;SDS011;9197;50.930;3.140;2022-10-31T03:21:21;13.73;;;10.97;;
18142;SDS011;9197;50.930;3.140;2022-10-31T03:23:49;13.47;;;12.07;;
18142;SDS011;9197;50.930;3.140;2022-10-31T03:26:17;13.53;;;11.47;;
18142;SDS011;9197;50.930;3.140;2022-10-31T03:28:45;16.40;;;11.47;;
18142;SDS011;9197;50.930;3.140;2022-10-31T03:31:13;16.40;;;12.23;;
18142;SDS011;9197;50.930;3.140;2022-10-31T03:33:44;14.20;;;12.57;;
18142;SDS011;9197;50.930;3.140;2022-10-31T03:36:12;19.00;;;12.73;;
18142;SDS011;9197;50.930;3.140;2022-10-31T03:38:41;15.47;;;12.37;;
18142;SDS011;9197;50.930;3.140;2022-10-31T03:41:11;17.77;;;12.37;;
18142;SDS011;9197;50.930;3.140;2022-10-31T03:43:40;14.03;;;12.13;;
18142;SDS011;9197;50.930;3.140;2022-10-31T03:46:09;16.03;;;13.20;;
18142;SDS011;9197;50.930;3.140;2022-10-31T03:48:36;16.17;;;12.60;;
18142;SDS011;9197;50.930;3.140;2022-10-31T03:51:06;14.77;;;12.27;;
18142;SDS011;9197;50.930;3.140;2022-10-31T03:53:36;16.13;;;12.10;;
18142;SDS011;9197;50.930;3.140;2022-10-31T03:56:07;16.30;;;11.63;;
18142;SDS011;9197;50.930;3.140;2022-10-31T03:58:38;17.27;;;13.53;;
18142;SDS011;9197;50.930;3.140;2022-10-31T04:01:11;16.83;;;12.73;;
18142;SDS011;9197;50.930;3.140;2022-10-31T04:03:38;19.17;;;12.33;;
18142;SDS011;9197;50.930;3.140;2022-10-31T04:06:08;16.37;;;11.93;;
18142;SDS011;9197;50.930;3.140;2022-10-31T04:08:37;17.23;;;12.83;;
18142;SDS011;9197;50.930;3.140;2022-10-31T04:11:06;15.00;;;12.20;;
18142;SDS011;9197;50.930;3.140;2022-10-31T04:13:35;15.97;;;13.17;;
18142;SDS011;9197;50.930;3.140;2022-10-31T04:16:04;17.93;;;12.67;;
18142;SDS011;9197;50.930;3.140;2022-10-31T04:18:32;15.30;;;13.00;;
18142;SDS011;9197;50.930;3.140;2022-10-31T04:20:59;15.13;;;11.87;;
18142;SDS011;9197;50.930;3.140;2022-10-31T04:23:28;15.87;;;11.97;;
18142;SDS011;9197;50.930;3.140;2022-10-31T04:25:56;16.73;;;12.07;;
18142;SDS011;9197;50.930;3.140;2022-10-31T04:28:23;17.77;;;12.43;;
18142;SDS011;9197;50.930;3.140;2022-10-31T04:30:50;18.17;;;12.23;;
18142;SDS011;9197;50.930;3.140;2022-10-31T04:33:17;13.93;;;11.50;;
18142;SDS011;9197;50.930;3.140;2022-10-31T04:35:45;18.97;;;11.87;;
18142;SDS011;9197;50.930;3.140;2022-10-31T04:38:12;19.33;;;12.07;;
18142;SDS011;9197;50.930;3.140;2022-10-31T04:40:41;18.47;;;11.40;;
18142;SDS011;9197;50.930;3.140;2022-10-31T04:43:08;15.17;;;11.50;;
18142;SDS011;9197;50.930;3.140;2022-10-31T04:45:35;14.60;;;11.57;;
18142;SDS011;9197;50.930;3.140;2022-10-31T04:48:02;15.70;;;10.57;;
18142;SDS011;9197;50.930;3.140;2022-10-31T04:50:29;17.33;;;12.27;;
18142;SDS011;9197;50.930;3.140;2022-10-31T04:52:57;13.00;;;10.27;;
18142;SDS011;9197;50.930;3.140;2022-10-31T04:55:24;12.00;;;10.73;;
18142;SDS011;9197;50.930;3.140;2022-10-31T04:57:52;13.57;;;10.60;;
18142;SDS011;9197;50.930;3.140;2022-10-31T05:00:20;17.67;;;11.07;;
18142;SDS011;9197;50.930;3.140;2022-10-31T05:02:48;13.33;;;10.83;;
18142;SDS011;9197;50.930;3.140;2022-10-31T05:05:16;11.43;;;9.67;;
18142;SDS011;9197;50.930;3.140;2022-10-31T05:07:44;15.27;;;11.03;;
18142;SDS011;9197;50.930;3.140;2022-10-31T05:10:12;14.60;;;10.33;;
18142;SDS011;9197;50.930;3.140;2022-10-31T05:12:44;15.50;;;11.57;;
18142;SDS011;9197;50.930;3.140;2022-10-31T05:15:14;19.70;;;13.13;;
18142;SDS011;9197;50.930;3.140;2022-10-31T05:17:41;15.90;;;12.37;;
18142;SDS011;9197;50.930;3.140;2022-10-31T05:20:09;18.83;;;13.07;;
18142;SDS011;9197;50.930;3.140;2022-10-31T05:22:36;19.07;;;12.33;;
18142;SDS011;9197;50.930;3.140;2022-10-31T05:25:04;15.50;;;12.40;;
18142;SDS011;9197;50.930;3.140;2022-10-31T05:27:31;15.97;;;11.83;;
18142;SDS011;9197;50.930;3.140;2022-10-31T05:29:58;18.37;;;10.80;;
18142;SDS011;9197;50.930;3.140;2022-10-31T05:32:26;17.23;;;13.30;;
18142;SDS011;9197;50.930;3.140;2022-10-31T05:34:54;17.97;;;12.30;;
18142;SDS011;9197;50.930;3.140;2022-10-31T05:37:21;13.73;;;12.37;;
18142;SDS011;9197;50.930;3.140;2022-10-31T05:39:49;19.53;;;12.60;;
18142;SDS011;9197;50.930;3.140;2022-10-31T05:42:16;15.87;;;12.73;;
18142;SDS011;9197;50.930;3.140;2022-10-31T05:44:44;15.43;;;12.30;;
18142;SDS011;9197;50.930;3.140;2022-10-31T05:47:11;19.17;;;12.87;;
18142;SDS011;9197;50.930;3.140;2022-10-31T05:49:40;15.00;;;12.00;;
18142;SDS011;9197;50.930;3.140;2022-10-31T05:52:07;18.77;;;11.37;;
18142;SDS011;9197;50.930;3.140;2022-10-31T05:54:35;19.03;;;14.00;;
18142;SDS011;9197;50.930;3.140;2022-10-31T05:57:03;16.60;;;11.93;;
18142;SDS011;9197;50.930;3.140;2022-10-31T05:59:30;17.43;;;13.30;;
18142;SDS011;9197;50.930;3.140;2022-10-31T06:01:57;16.93;;;13.87;;
18142;SDS011;9197;50.930;3.140;2022-10-31T06:04:24;17.37;;;12.63;;
18142;SDS011;9197;50.930;3.140;2022-10-31T06:06:53;15.30;;;13.53;;
18142;SDS011;9197;50.930;3.140;2022-10-31T06:09:20;18.27;;;13.63;;
18142;SDS011;9197;50.930;3.140;2022-10-31T06:11:47;15.03;;;13.17;;
18142;SDS011;9197;50.930;3.140;2022-10-31T06:14:14;12.87;;;11.23;;
18142;SDS011;9197;50.930;3.140;2022-10-31T06:16:41;19.10;;;12.40;;
18142;SDS011;9197;50.930;3.140;2022-10-31T06:19:08;18.57;;;13.17;;
18142;SDS011;9197;50.930;3.140;2022-10-31T06:21:36;17.87;;;13.47;;
18142;SDS011;9197;50.930;3.140;2022-10-31T06:24:05;16.03;;;12.20;;
18142;SDS011;9197;50.930;3.140;2022-10-31T06:26:32;17.63;;;12.63;;
18142;SDS011;9197;50.930;3.140;2022-10-31T06:28:59;16.83;;;11.70;;
18142;SDS011;9197;50.930;3.140;2022-10-31T06:31:26;15.03;;;11.10;;
18142;SDS011;9197;50.930;3.140;2022-10-31T06:33:53;15.27;;;11.03;;
18142;SDS011;9197;50.930;3.140;2022-10-31T06:36:20;14.57;;;11.97;;
18142;SDS011;9197;50.930;3.140;2022-10-31T06:38:47;14.27;;;11.63;;
18142;SDS011;9197;50.930;3.140;2022-10-31T06:41:16;17.30;;;12.07;;
18142;SDS011;9197;50.930;3.140;2022-10-31T06:43:45;18.60;;;11.73;;
18142;SDS011;9197;50.930;3.140;2022-10-31T06:46:13;14.77;;;12.27;;
18142;SDS011;9197;50.930;3.140;2022-10-31T06:48:40;17.20;;;11.67;;
18142;SDS011;9197;50.930;3.140;2022-10-31T06:51:07;17.10;;;11.87;;
18142;SDS011;9197;50.930;3.140;2022-10-31T06:53:35;13.63;;;11.73;;
18142;SDS011;9197;50.930;3.140;2022-10-31T06:56:02;17.00;;;12.43;;
18142;SDS011;9197;50.930;3.140;2022-10-31T06:58:30;15.93;;;11.40;;
18142;SDS011;9197;50.930;3.140;2022-10-31T07:00:58;18.50;;;12.67;;
18142;SDS011;9197;50.930;3.140;2022-10-31T07:03:26;14.93;;;11.67;;
18142;SDS011;9197;50.930;3.140;2022-10-31T07:05:54;18.43;;;12.27;;
18142;SDS011;9197;50.930;3.140;2022-10-31T07:08:22;18.03;;;12.67;;
18142;SDS011;9197;50.930;3.140;2022-10-31T07:10:51;18.43;;;11.73;;
18142;SDS011;9197;50.930;3.140;2022-10-31T07:13:18;16.60;;;13.57;;
18142;SDS011;9197;50.930;3.140;2022-10-31T07:15:51;21.97;;;14.20;;
18142;SDS011;9197;50.930;3.140;2022-10-31T07:18:19;18.10;;;14.23;;
18142;SDS011;9197;50.930;3.140;2022-10-31T07:20:46;17.80;;;14.67;;
18142;SDS011;9197;50.930;3.140;2022-10-31T07:23:14;16.47;;;13.03;;
18142;SDS011;9197;50.930;3.140;2022-10-31T07:25:41;19.90;;;12.43;;
18142;SDS011;9197;50.930;3.140;2022-10-31T07:28:08;16.47;;;11.73;;
18142;SDS011;9197;50.930;3.140;2022-10-31T07:30:36;17.53;;;12.70;;
18142;SDS011;9197;50.930;3.140;2022-10-31T07:33:04;18.53;;;12.77;;
18142;SDS011;9197;50.930;3.140;2022-10-31T07:35:32;16.00;;;12.03;;
18142;SDS011;9197;50.930;3.140;2022-10-31T07:38:06;16.23;;;12.63;;
18142;SDS011;9197;50.930;3.140;2022-10-31T07:40:33;15.27;;;11.97;;
18142;SDS011;9197;50.930;3.140;2022-10-31T07:43:00;17.50;;;12.60;;
18142;SDS011;9197;50.930;3.140;2022-10-31T07:45:27;17.80;;;12.63;;
18142;SDS011;9197;50.930;3.140;2022-10-31T07:47:54;16.17;;;12.73;;
18142;SDS011;9197;50.930;3.140;2022-10-31T07:50:24;16.57;;;12.47;;
18142;SDS011;9197;50.930;3.140;2022-10-31T07:52:57;16.90;;;12.70;;
18142;SDS011;9197;50.930;3.140;2022-10-31T07:55:24;13.47;;;12.07;;
18142;SDS011;9197;50.930;3.140;2022-10-31T07:57:55;15.33;;;12.20;;
18142;SDS011;9197;50.930;3.140;2022-10-31T08:00:22;15.27;;;11.80;;
18142;SDS011;9197;50.930;3.140;2022-10-31T08:02:55;17.07;;;11.63;;
18142;SDS011;9197;50.930;3.140;2022-10-31T08:05:24;17.37;;;11.67;;
18142;SDS011;9197;50.930;3.140;2022-10-31T08:07:51;15.87;;;12.83;;
18142;SDS011;9197;50.930;3.140;2022-10-31T08:10:18;14.77;;;11.90;;
18142;SDS011;9197;50.930;3.140;2022-10-31T08:12:45;15.47;;;13.13;;
18142;SDS011;9197;50.930;3.140;2022-10-31T08:15:13;14.53;;;13.00;;
18142;SDS011;9197;50.930;3.140;2022-10-31T08:17:40;21.57;;;12.27;;
18142;SDS011;9197;50.930;3.140;2022-10-31T08:20:07;17.00;;;12.20;;
18142;SDS011;9197;50.930;3.140;2022-10-31T08:22:36;14.00;;;12.60;;
18142;SDS011;9197;50.930;3.140;2022-10-31T08:25:03;15.70;;;12.70;;
18142;SDS011;9197;50.930;3.140;2022-10-31T08:27:31;14.50;;;12.03;;
18142;SDS011;9197;50.930;3.140;2022-10-31T08:29:58;21.47;;;13.17;;
18142;SDS011;9197;50.930;3.140;2022-10-31T08:32:25;17.40;;;12.43;;
18142;SDS011;9197;50.930;3.140;2022-10-31T08:34:52;16.93;;;13.67;;
18142;SDS011;9197;50.930;3.140;2022-10-31T08:37:19;15.70;;;13.07;;
18142;SDS011;9197;50.930;3.140;2022-10-31T08:39:48;16.20;;;12.67;;
18142;SDS011;9197;50.930;3.140;2022-10-31T08:42:15;16.43;;;12.70;;
18142;SDS011;9197;50.930;3.140;2022-10-31T08:44:42;18.37;;;12.47;;
18142;SDS011;9197;50.930;3.140;2022-10-31T08:47:09;15.97;;;11.83;;
18142;SDS011;9197;50.930;3.140;2022-10-31T08:49:36;18.73;;;13.20;;
18142;SDS011;9197;50.930;3.140;2022-10-31T08:52:04;19.33;;;12.17;;
18142;SDS011;9197;50.930;3.140;2022-10-31T08:54:31;16.10;;;12.73;;
18142;SDS011;9197;50.930;3.140;2022-10-31T08:56:59;16.07;;;11.60;;
18142;SDS011;9197;50.930;3.140;2022-10-31T08:59:26;14.27;;;12.40;;
18142;SDS011;9197;50.930;3.140;2022-10-31T09:01:54;23.00;;;12.73;;
18142;SDS011;9197;50.930;3.140;2022-10-31T09:04:21;16.73;;;11.63;;
18142;SDS011;9197;50.930;3.140;2022-10-31T09:06:48;16.77;;;12.10;;
18142;SDS011;9197;50.930;3.140;2022-10-31T09:09:15;18.03;;;12.40;;
18142;SDS011;9197;50.930;3.140;2022-10-31T09:11:42;18.70;;;12.30;;
18142;SDS011;9197;50.930;3.140;2022-10-31T09:14:11;15.10;;;12.53;;
18142;SDS011;9197;50.930;3.140;2022-10-31T09:16:38;22.67;;;12.40;;
18142;SDS011;9197;50.930;3.140;2022-10-31T09:19:05;16.40;;;12.37;;
18142;SDS011;9197;50.930;3.140;2022-10-31T09:21:32;15.70;;;12.57;;
18142;SDS011;9197;50.930;3.140;2022-10-31T09:24:00;17.80;;;12.60;;
18142;SDS011;9197;50.930;3.140;2022-10-31T09:26:27;15.03;;;12.30;;
18142;SDS011;9197;50.930;3.140;2022-10-31T09:28:55;16.57;;;12.27;;
18142;SDS011;9197;50.930;3.140;2022-10-31T09:31:24;14.53;;;11.77;;
18142;SDS011;9197;50.930;3.140;2022-10-31T09:33:52;14.43;;;11.77;;
18142;SDS011;9197;50.930;3.140;2022-10-31T09:36:19;15.17;;;12.17;;
18142;SDS011;9197;50.930;3.140;2022-10-31T09:38:47;13.67;;;11.30;;
18142;SDS011;9197;50.930;3.140;2022-10-31T09:41:17;12.73;;;11.40;;
18142;SDS011;9197;50.930;3.140;2022-10-31T09:43:48;12.97;;;10.57;;
18142;SDS011;9197;50.930;3.140;2022-10-31T09:46:18;15.40;;;11.87;;
18142;SDS011;9197;50.930;3.140;2022-10-31T09:48:52;15.13;;;11.27;;
18142;SDS011;9197;50.930;3.140;2022-10-31T09:51:23;11.97;;;10.77;;
18142;SDS011;9197;50.930;3.140;2022-10-31T09:53:52;14.87;;;11.60;;
18142;SDS011;9197;50.930;3.140;2022-10-31T09:56:21;12.93;;;11.37;;
18142;SDS011;9197;50.930;3.140;2022-10-31T09:58:51;16.17;;;12.60;;
18142;SDS011;9197;50.930;3.140;2022-10-31T10:01:28;17.00;;;12.80;;
18142;SDS011;9197;50.930;3.140;2022-10-31T10:03:59;12.87;;;11.37;;
18142;SDS011;9197;50.930;3.140;2022-10-31T10:06:28;18.17;;;11.37;;
18142;SDS011;9197;50.930;3.140;2022-10-31T10:08:56;19.13;;;11.07;;
18142;SDS011;9197;50.930;3.140;2022-10-31T10:11:28;9.87;;;8.87;;
18142;SDS011;9197;50.930;3.140;2022-10-31T10:14:02;14.57;;;9.73;;
18142;SDS011;9197;50.930;3.140;2022-10-31T10:16:36;10.77;;;9.17;;
18142;SDS011;9197;50.930;3.140;2022-10-31T10:19:10;13.13;;;9.30;;
18142;SDS011;9197;50.930;3.140;2022-10-31T10:21:42;12.40;;;9.07;;
18142;SDS011;9197;50.930;3.140;2022-10-31T10:24:18;11.03;;;8.87;;
18142;SDS011;9197;50.930;3.140;2022-10-31T10:26:50;9.97;;;8.67;;
18142;SDS011;9197;50.930;3.140;2022-10-31T10:29:23;11.77;;;9.13;;
18142;SDS011;9197;50.930;3.140;2022-10-31T10:31:53;10.73;;;8.67;;
18142;SDS011;9197;50.930;3.140;2022-10-31T10:34:24;10.77;;;9.60;;
18142;SDS011;9197;50.930;3.140;2022-10-31T10:36:55;11.50;;;8.83;;
18142;SDS011;9197;50.930;3.140;2022-10-31T10:39:24;14.93;;;8.90;;
18142;SDS011;9197;50.930;3.140;2022-10-31T10:41:52;14.50;;;8.90;;
18142;SDS011;9197;50.930;3.140;2022-10-31T10:44:37;14.53;;;8.47;;
18142;SDS011;9197;50.930;3.140;2022-10-31T10:47:22;14.97;;;8.83;;
18142;SDS011;9197;50.930;3.140;2022-10-31T10:50:09;14.60;;;8.07;;
18142;SDS011;9197;50.930;3.140;2022-10-31T10:52:39;9.07;;;7.63;;
18142;SDS011;9197;50.930;3.140;2022-10-31T10:55:12;10.37;;;7.97;;
18142;SDS011;9197;50.930;3.140;2022-10-31T10:57:50;10.67;;;8.50;;
18142;SDS011;9197;50.930;3.140;2022-10-31T11:00:20;13.27;;;9.00;;
18142;SDS011;9197;50.930;3.140;2022-10-31T11:02:48;11.33;;;7.93;;
18142;SDS011;9197;50.930;3.140;2022-10-31T11:05:20;11.20;;;8.00;;
18142;SDS011;9197;50.930;3.140;2022-10-31T11:07:48;10.57;;;7.60;;
18142;SDS011;9197;50.930;3.140;2022-10-31T11:10:16;8.63;;;7.70;;
18142;SDS011;9197;50.930;3.140;2022-10-31T11:12:44;10.20;;;7.47;;
18142;SDS011;9197;50.930;3.140;2022-10-31T11:15:17;10.70;;;7.67;;
18142;SDS011;9197;50.930;3.140;2022-10-31T11:17:47;10.10;;;7.80;;
18142;SDS011;9197;50.930;3.140;2022-10-31T11:20:27;8.67;;;7.83;;
18142;SDS011;9197;50.930;3.140;2022-10-31T11:23:15;9.70;;;6.80;;
18142;SDS011;9197;50.930;3.140;2022-10-31T11:25:50;6.90;;;6.20;;
18142;SDS011;9197;50.930;3.140;2022-10-31T11:28:17;9.50;;;7.03;;
18142;SDS011;9197;50.930;3.140;2022-10-31T11:30:45;10.97;;;6.83;;
18142;SDS011;9197;50.930;3.140;2022-10-31T11:33:16;8.20;;;7.00;;
18142;SDS011;9197;50.930;3.140;2022-10-31T11:35:45;6.80;;;5.37;;
18142;SDS011;9197;50.930;3.140;2022-10-31T11:38:15;6.57;;;5.77;;
18142;SDS011;9197;50.930;3.140;2022-10-31T11:40:50;6.40;;;5.70;;
18142;SDS011;9197;50.930;3.140;2022-10-31T11:43:18;6.53;;;5.90;;
18142;SDS011;9197;50.930;3.140;2022-10-31T11:45:45;8.90;;;5.23;;
18142;SDS011;9197;50.930;3.140;2022-10-31T11:48:15;6.93;;;5.23;;
18142;SDS011;9197;50.930;3.140;2022-10-31T11:50:46;5.53;;;4.67;;
18142;SDS011;9197;50.930;3.140;2022-10-31T11:53:16;6.60;;;4.47;;
18142;SDS011;9197;50.930;3.140;2022-10-31T11:55:44;7.27;;;4.60;;
18142;SDS011;9197;50.930;3.140;2022-10-31T11:58:21;6.67;;;5.10;;
18142;SDS011;9197;50.930;3.140;2022-10-31T12:00:49;7.37;;;4.77;;
18142;SDS011;9197;50.930;3.140;2022-10-31T12:03:23;7.33;;;4.60;;
18142;SDS011;9197;50.930;3.140;2022-10-31T12:05:54;12.37;;;4.53;;
18142;SDS011;9197;50.930;3.140;2022-10-31T12:08:24;10.02;;;5.20;;
18142;SDS011;9197;50.930;3.140;2022-10-31T12:10:55;9.27;;;5.73;;
18142;SDS011;9197;50.930;3.140;2022-10-31T12:13:31;6.10;;;4.60;;
18142;SDS011;9197;50.930;3.140;2022-10-31T12:16:00;8.68;;;4.35;;
18142;SDS011;9197;50.930;3.140;2022-10-31T12:18:32;9.43;;;4.87;;
18142;SDS011;9197;50.930;3.140;2022-10-31T12:21:08;10.30;;;4.97;;
18142;SDS011;9197;50.930;3.140;2022-10-31T12:23:44;5.97;;;4.47;;
18142;SDS011;9197;50.930;3.140;2022-10-31T12:26:16;8.03;;;4.63;;
18142;SDS011;9197;50.930;3.140;2022-10-31T12:28:58;8.57;;;4.93;;
18142;SDS011;9197;50.930;3.140;2022-10-31T12:31:32;9.63;;;5.60;;
18142;SDS011;9197;50.930;3.140;2022-10-31T12:34:05;7.30;;;4.80;;
18142;SDS011;9197;50.930;3.140;2022-10-31T12:36:43;7.17;;;5.27;;
18142;SDS011;9197;50.930;3.140;2022-10-31T12:39:24;11.63;;;6.30;;
18142;SDS011;9197;50.930;3.140;2022-10-31T12:41:52;10.17;;;6.00;;
18142;SDS011;9197;50.930;3.140;2022-10-31T12:44:34;8.20;;;6.03;;
18142;SDS011;9197;50.930;3.140;2022-10-31T12:47:08;8.03;;;5.63;;
18142;SDS011;9197;50.930;3.140;2022-10-31T12:49:41;8.87;;;6.77;;
18142;SDS011;9197;50.930;3.140;2022-10-31T12:52:14;7.73;;;5.93;;
18142;SDS011;9197;50.930;3.140;2022-10-31T12:54:54;9.00;;;5.67;;
18142;SDS011;9197;50.930;3.140;2022-10-31T12:57:27;11.90;;;6.17;;
18142;SDS011;9197;50.930;3.140;2022-10-31T12:59:57;12.67;;;6.97;;
18142;SDS011;9197;50.930;3.140;2022-10-31T13:02:27;10.30;;;8.13;;
18142;SDS011;9197;50.930;3.140;2022-10-31T13:04:55;11.13;;;6.43;;
18142;SDS011;9197;50.930;3.140;2022-10-31T13:07:25;11.97;;;7.43;;
18142;SDS011;9197;50.930;3.140;2022-10-31T13:09:58;12.83;;;8.00;;
18142;SDS011;9197;50.930;3.140;2022-10-31T13:12:26;16.83;;;8.17;;
18142;SDS011;9197;50.930;3.140;2022-10-31T13:14:55;18.00;;;8.67;;
18142;SDS011;9197;50.930;3.140;2022-10-31T13:17:25;13.70;;;9.73;;
18142;SDS011;9197;50.930;3.140;2022-10-31T13:19:55;12.10;;;9.53;;
18142;SDS011;9197;50.930;3.140;2022-10-31T13:22:27;11.57;;;8.63;;
18142;SDS011;9197;50.930;3.140;2022-10-31T13:24:59;13.83;;;9.87;;
18142;SDS011;9197;50.930;3.140;2022-10-31T13:27:29;11.57;;;9.47;;
18142;SDS011;9197;50.930;3.140;2022-10-31T13:29:58;21.83;;;10.33;;
18142;SDS011;9197;50.930;3.140;2022-10-31T13:32:28;17.07;;;9.53;;
18142;SDS011;9197;50.930;3.140;2022-10-31T13:34:56;12.90;;;9.10;;
18142;SDS011;9197;50.930;3.140;2022-10-31T13:37:26;13.63;;;10.33;;
18142;SDS011;9197;50.930;3.140;2022-10-31T13:40:01;16.03;;;10.10;;
18142;SDS011;9197;50.930;3.140;2022-10-31T13:42:34;11.93;;;10.73;;
18142;SDS011;9197;50.930;3.140;2022-10-31T13:45:11;17.67;;;10.07;;
18142;SDS011;9197;50.930;3.140;2022-10-31T13:47:38;13.43;;;9.60;;
18142;SDS011;9197;50.930;3.140;2022-10-31T13:50:18;10.57;;;8.90;;
18142;SDS011;9197;50.930;3.140;2022-10-31T13:52:46;13.70;;;9.03;;
18142;SDS011;9197;50.930;3.140;2022-10-31T13:57:56;13.30;;;9.53;;
18142;SDS011;9197;50.930;3.140;2022-10-31T14:00:24;15.80;;;9.90;;
18142;SDS011;9197;50.930;3.140;2022-10-31T14:02:52;13.70;;;9.67;;
18142;SDS011;9197;50.930;3.140;2022-10-31T14:05:22;13.30;;;9.13;;
18142;SDS011;9197;50.930;3.140;2022-10-31T14:07:50;11.87;;;9.90;;
18142;SDS011;9197;50.930;3.140;2022-10-31T14:10:22;12.93;;;9.33;;
18142;SDS011;9197;50.930;3.140;2022-10-31T14:12:52;12.47;;;10.10;;
18142;SDS011;9197;50.930;3.140;2022-10-31T14:15:22;16.30;;;9.47;;
18142;SDS011;9197;50.930;3.140;2022-10-31T14:17:51;16.40;;;9.17;;
18142;SDS011;9197;50.930;3.140;2022-10-31T14:20:21;13.60;;;8.93;;
18142;SDS011;9197;50.930;3.140;2022-10-31T14:22:49;18.07;;;9.90;;
18142;SDS011;9197;50.930;3.140;2022-10-31T14:25:29;12.47;;;9.40;;
18142;SDS011;9197;50.930;3.140;2022-10-31T14:27:57;15.03;;;9.20;;
18142;SDS011;9197;50.930;3.140;2022-10-31T14:30:27;14.47;;;9.37;;
18142;SDS011;9197;50.930;3.140;2022-10-31T14:32:56;17.33;;;10.87;;
18142;SDS011;9197;50.930;3.140;2022-10-31T14:35:26;15.07;;;10.13;;
18142;SDS011;9197;50.930;3.140;2022-10-31T14:38:02;16.93;;;10.27;;
18142;SDS011;9197;50.930;3.140;2022-10-31T14:40:33;20.47;;;9.53;;
18142;SDS011;9197;50.930;3.140;2022-10-31T14:43:07;18.03;;;11.63;;
18142;SDS011;9197;50.930;3.140;2022-10-31T14:45:42;18.03;;;10.13;;
18142;SDS011;9197;50.930;3.140;2022-10-31T14:48:22;21.57;;;11.73;;
18142;SDS011;9197;50.930;3.140;2022-10-31T14:50:52;17.53;;;11.13;;
18142;SDS011;9197;50.930;3.140;2022-10-31T14:53:20;18.53;;;11.30;;
18142;SDS011;9197;50.930;3.140;2022-10-31T14:55:49;18.50;;;12.40;;
18142;SDS011;9197;50.930;3.140;2022-10-31T14:58:20;16.20;;;12.77;;
18142;SDS011;9197;50.930;3.140;2022-10-31T15:00:49;19.83;;;11.80;;